createdAt,value
2023-04-16T00:01:08.183Z,97.89
2023-04-16T00:04:11.094Z,98.13
2023-04-16T00:07:14.002Z,98.30
2023-04-16T00:10:18.636Z,98.30
2023-04-16T00:13:21.474Z,98.16
2023-04-16T00:16:24.329Z,98.11
2023-04-16T00:19:27.015Z,97.89
2023-04-16T00:22:29.671Z,98.04
2023-04-16T00:25:33.691Z,98.04
2023-04-16T00:28:36.713Z,98.02
2023-04-16T00:31:39.577Z,97.54
2023-04-16T00:34:42.320Z,98.04
2023-04-16T00:37:45.022Z,97.21
2023-04-16T00:40:49.109Z,97.59
2023-04-16T00:43:51.913Z,97.66
2023-04-16T00:46:55.199Z,98.19
2023-04-16T00:49:57.932Z,98.57
2023-04-16T00:53:00.675Z,97.90
2023-04-16T00:56:06.475Z,98.44
2023-04-16T00:59:10.104Z,98.25
2023-04-16T01:02:13.175Z,98.30
2023-04-16T01:05:16.105Z,98.20
2023-04-16T01:08:20.019Z,99.26
2023-04-16T01:11:24.074Z,98.83
2023-04-16T01:14:26.749Z,98.16
2023-04-16T01:17:29.556Z,99.31
2023-04-16T01:20:37.399Z,100.00
2023-04-16T01:23:40.047Z,99.95
2023-04-16T01:26:42.759Z,100.00
2023-04-16T01:29:45.474Z,100.00
2023-04-16T01:32:48.209Z,100.00
2023-04-16T01:35:52.503Z,100.00
2023-04-16T01:38:55.562Z,100.00
2023-04-16T01:41:58.278Z,100.00
2023-04-16T01:45:01.003Z,100.00
2023-04-16T01:48:04.518Z,100.00
2023-04-16T01:51:08.615Z,100.00
2023-04-16T01:54:11.272Z,100.00
2023-04-16T01:57:13.967Z,100.00
2023-04-16T02:00:16.891Z,100.00
2023-04-16T02:03:19.756Z,100.00
2023-04-16T02:06:23.896Z,100.00
2023-04-16T02:09:26.677Z,100.00
2023-04-16T02:12:29.387Z,100.00
2023-04-16T02:15:32.059Z,100.00
2023-04-16T02:18:34.864Z,100.00
2023-04-16T02:21:39.048Z,100.00
2023-04-16T02:24:41.734Z,100.00
2023-04-16T02:27:44.446Z,100.00
2023-04-16T02:30:47.105Z,100.00
2023-04-16T02:33:49.768Z,100.00
2023-04-16T02:36:54.343Z,100.00
2023-04-16T02:39:58.281Z,100.00
2023-04-16T02:43:00.917Z,100.00
2023-04-16T02:46:04.085Z,100.00
2023-04-16T02:49:07.193Z,100.00
2023-04-16T02:52:11.316Z,100.00
2023-04-16T02:55:14.018Z,100.00
2023-04-16T02:58:16.664Z,100.00
2023-04-16T03:01:19.693Z,100.00
2023-04-16T03:04:22.483Z,100.00
2023-04-16T03:07:26.681Z,100.00
2023-04-16T03:10:29.386Z,100.00
2023-04-16T03:13:32.188Z,100.00
2023-04-16T03:16:34.932Z,100.00
2023-04-16T03:19:37.611Z,100.00
2023-04-16T03:22:41.864Z,100.00
2023-04-16T03:25:47.117Z,100.00
2023-04-16T03:28:49.930Z,99.90
2023-04-16T03:31:52.691Z,100.00
2023-04-16T03:34:57.012Z,99.89
2023-04-16T03:38:03.246Z,100.00
2023-04-16T03:41:06.040Z,100.00
2023-04-16T03:44:08.739Z,99.95
2023-04-16T03:47:11.707Z,99.97
2023-04-16T03:50:14.366Z,100.00
2023-04-16T03:53:18.485Z,99.91
2023-04-16T03:56:21.186Z,100.00
2023-04-16T03:59:24.049Z,99.94
2023-04-16T04:02:27.326Z,99.36
2023-04-16T04:05:30.123Z,99.70
2023-04-16T04:08:34.199Z,99.50
2023-04-16T04:11:37.005Z,99.58
2023-04-16T04:14:40.358Z,99.25
2023-04-16T04:17:43.149Z,99.41
2023-04-16T04:20:46.169Z,99.12
2023-04-16T04:23:50.278Z,99.10
2023-04-16T04:26:53.758Z,99.14
2023-04-16T04:29:57.524Z,99.39
2023-04-16T04:33:00.573Z,99.17
2023-04-16T04:36:03.878Z,99.11
2023-04-16T04:39:08.144Z,98.83
2023-04-16T04:42:11.094Z,99.10
2023-04-16T04:45:13.925Z,98.95
2023-04-16T04:48:17.033Z,99.05
2023-04-16T04:51:19.639Z,98.64
2023-04-16T04:54:23.695Z,98.52
2023-04-16T04:57:26.462Z,98.43
2023-04-16T05:00:29.168Z,98.92
2023-04-16T05:03:32.045Z,98.53
2023-04-16T05:06:34.928Z,98.52
2023-04-16T05:09:38.972Z,98.56
2023-04-16T05:12:42.240Z,98.29
2023-04-16T05:15:45.743Z,97.95
2023-04-16T05:18:48.400Z,98.35
2023-04-16T05:21:51.134Z,97.89
2023-04-16T05:24:55.333Z,97.96
2023-04-16T05:27:57.969Z,97.12
2023-04-16T05:31:00.850Z,97.52
2023-04-16T05:34:03.708Z,97.67
2023-04-16T05:37:06.480Z,97.65
2023-04-16T05:40:13.424Z,97.51
2023-04-16T05:43:16.231Z,97.70
2023-04-16T05:46:18.983Z,97.58
2023-04-16T05:49:22.189Z,97.21
2023-04-16T05:52:24.880Z,97.26
2023-04-16T05:55:28.916Z,97.09
2023-04-16T05:58:31.647Z,97.37
2023-04-16T06:01:34.576Z,97.47
2023-04-16T06:04:37.401Z,97.77
2023-04-16T06:07:40.103Z,97.37
2023-04-16T06:10:44.203Z,97.63
2023-04-16T06:13:47.142Z,97.26
2023-04-16T06:16:49.804Z,97.21
2023-04-16T06:19:52.585Z,97.67
2023-04-16T06:22:56.389Z,97.05
2023-04-16T06:26:00.393Z,96.91
2023-04-16T06:29:04.154Z,96.77
2023-04-16T06:32:06.949Z,96.46
2023-04-16T06:35:10.197Z,96.38
2023-04-16T06:38:12.848Z,96.16
2023-04-16T06:41:17.055Z,96.16
2023-04-16T06:44:19.790Z,96.21
2023-04-16T06:47:22.679Z,96.06
2023-04-16T06:50:26.584Z,95.72
2023-04-16T06:53:29.592Z,95.75
2023-04-16T06:56:33.643Z,95.44
2023-04-16T06:59:36.492Z,95.50
2023-04-16T07:02:39.327Z,95.30
2023-04-16T07:05:42.200Z,95.46
2023-04-16T07:08:44.919Z,94.90
2023-04-16T07:11:49.295Z,95.30
2023-04-16T07:14:54.348Z,95.17
2023-04-16T07:17:57.922Z,94.77
2023-04-16T07:21:00.877Z,95.19
2023-04-16T07:24:03.732Z,94.66
2023-04-16T07:27:09.957Z,95.04
2023-04-16T07:30:12.961Z,94.80
2023-04-16T07:33:16.289Z,95.25
2023-04-16T07:36:23.498Z,95.13
2023-04-16T07:39:26.397Z,94.92
2023-04-16T07:42:30.462Z,94.78
2023-04-16T07:45:33.292Z,94.94
2023-04-16T07:48:35.903Z,95.04
2023-04-16T07:51:39.501Z,95.13
2023-04-16T07:54:42.184Z,95.12
2023-04-16T07:57:46.482Z,95.23
2023-04-16T08:00:51.400Z,95.19
2023-04-16T08:04:01.664Z,95.35
2023-04-16T08:07:04.491Z,95.38
2023-04-16T08:10:11.100Z,95.32
2023-04-16T08:13:18.492Z,95.75
2023-04-16T08:16:21.199Z,95.10
2023-04-16T08:19:25.183Z,95.47
2023-04-16T08:22:27.946Z,95.74
2023-04-16T08:25:30.586Z,95.78
2023-04-16T08:28:34.791Z,96.37
2023-04-16T08:31:37.659Z,96.13
2023-04-16T08:34:40.681Z,95.71
2023-04-16T08:37:43.410Z,95.56
2023-04-16T08:40:48.186Z,95.31
2023-04-16T08:43:56.684Z,95.18
2023-04-16T08:46:59.924Z,95.38
2023-04-16T08:50:04.915Z,95.21
2023-04-16T08:53:08.324Z,95.08
2023-04-16T08:56:12.746Z,95.01
2023-04-16T08:59:17.181Z,92.98
2023-04-16T09:02:20.522Z,93.11
2023-04-16T09:05:26.292Z,93.18
2023-04-16T09:08:30.397Z,94.00
2023-04-16T09:11:33.807Z,93.70
2023-04-16T09:14:41.781Z,94.49
2023-04-16T09:17:44.509Z,94.24
2023-04-16T09:20:47.345Z,93.46
2023-04-16T09:23:50.564Z,94.25
2023-04-16T09:26:55.357Z,94.00
2023-04-16T09:29:59.687Z,94.63
2023-04-16T09:33:16.696Z,94.41
2023-04-16T09:36:24.298Z,94.27
2023-04-16T09:39:27.402Z,94.32
2023-04-16T09:42:33.566Z,94.48
2023-04-16T09:45:49.837Z,93.86
2023-04-16T09:48:52.579Z,93.57
2023-04-16T09:51:56.245Z,93.61
2023-04-16T09:55:01.973Z,93.81
2023-04-16T09:58:04.641Z,93.92
2023-04-16T10:01:12.888Z,94.24
2023-04-16T10:04:18.564Z,94.25
2023-04-16T10:07:21.922Z,94.56
2023-04-16T10:10:26.445Z,93.50
2023-04-16T10:13:31.029Z,94.34
2023-04-16T10:16:35.686Z,93.31
2023-04-16T10:19:38.879Z,93.71
2023-04-16T10:22:41.778Z,94.08
2023-04-16T10:25:45.285Z,94.22
2023-04-16T10:28:48.311Z,94.45
2023-04-16T10:31:52.952Z,94.67
2023-04-16T10:34:56.229Z,94.29
2023-04-16T10:37:58.979Z,94.25
2023-04-16T10:41:04.612Z,94.46
2023-04-16T10:44:09.844Z,94.51
2023-04-16T10:47:15.195Z,94.50
2023-04-16T10:50:17.969Z,94.65
2023-04-16T10:53:25.043Z,94.01
2023-04-16T10:56:28.399Z,93.77
2023-04-16T10:59:33.138Z,94.15
2023-04-16T11:02:41.665Z,93.53
2023-04-16T11:05:47.824Z,93.12
2023-04-16T11:08:54.976Z,92.65
2023-04-16T11:11:58.327Z,92.25
2023-04-16T11:15:03.163Z,92.16
2023-04-16T11:18:08.198Z,90.10
2023-04-16T11:21:14.266Z,91.31
2023-04-16T11:24:19.400Z,91.77
2023-04-16T11:27:25.547Z,91.79
2023-04-16T11:30:34.335Z,92.06
2023-04-16T11:33:38.812Z,91.80
2023-04-16T11:36:44.874Z,91.76
2023-04-16T11:39:52.164Z,91.64
2023-04-16T11:42:54.882Z,91.81
2023-04-16T11:45:59.044Z,91.82
2023-04-16T11:49:03.072Z,91.47
2023-04-16T11:52:05.828Z,91.54
2023-04-16T11:55:09.033Z,91.43
2023-04-16T11:58:17.094Z,91.15
2023-04-16T12:01:22.673Z,91.62
2023-04-16T12:04:29.565Z,91.70
2023-04-16T12:07:32.558Z,91.43
2023-04-16T12:10:37.311Z,91.17
2023-04-16T12:13:40.310Z,91.64
2023-04-16T12:16:43.377Z,91.64
2023-04-16T12:19:52.668Z,91.45
2023-04-16T12:22:59.381Z,91.54
2023-04-16T12:26:10.919Z,91.24
2023-04-16T12:29:21.760Z,91.58
2023-04-16T12:32:24.543Z,91.36
2023-04-16T12:35:32.706Z,91.66
2023-04-16T12:38:35.346Z,91.56
2023-04-16T12:41:40.710Z,91.69
2023-04-16T12:44:45.648Z,91.83
2023-04-16T12:47:50.444Z,92.30
2023-04-16T12:50:55.887Z,92.33
2023-04-16T12:53:58.603Z,92.02
2023-04-16T12:57:03.691Z,92.50
2023-04-16T13:00:10.918Z,92.40
2023-04-16T13:03:16.362Z,92.81
2023-04-16T13:06:21.467Z,92.75
2023-04-16T13:09:27.028Z,92.76
2023-04-16T13:12:29.778Z,92.90
2023-04-16T13:15:32.759Z,92.88
2023-04-16T13:18:37.325Z,92.68
2023-04-16T13:21:41.730Z,92.38
2023-04-16T13:24:44.562Z,92.34
2023-04-16T13:27:48.260Z,91.91
2023-04-16T13:30:51.193Z,92.02
2023-04-16T13:33:53.954Z,90.19
2023-04-16T13:36:58.058Z,91.01
2023-04-16T13:40:02.302Z,90.25
2023-04-16T13:43:07.298Z,89.80
2023-04-16T13:46:10.476Z,88.47
2023-04-16T13:49:13.210Z,89.78
2023-04-16T13:52:17.246Z,89.07
2023-04-16T13:55:20.003Z,89.41
2023-04-16T13:58:25.104Z,88.78
2023-04-16T14:01:28.821Z,88.35
2023-04-16T14:04:31.459Z,88.53
2023-04-16T14:07:36.749Z,88.60
2023-04-16T14:10:41.616Z,86.57
2023-04-16T14:13:44.486Z,87.10
2023-04-16T14:16:47.362Z,87.71
2023-04-16T14:19:50.540Z,87.76
2023-04-16T14:22:54.603Z,86.15
2023-04-16T14:25:57.658Z,85.53
2023-04-16T14:29:00.301Z,85.94
2023-04-16T14:32:03.824Z,86.99
2023-04-16T14:35:08.314Z,87.59
2023-04-16T14:38:12.541Z,87.83
2023-04-16T14:41:15.195Z,87.89
2023-04-16T14:44:17.961Z,88.27
2023-04-16T14:47:20.873Z,88.21
2023-04-16T14:50:23.644Z,87.21
2023-04-16T14:53:27.673Z,87.86
2023-04-16T14:56:30.717Z,87.09
2023-04-16T14:59:33.396Z,87.35
2023-04-16T15:02:36.895Z,87.08
2023-04-16T15:05:39.753Z,87.42
2023-04-16T15:08:43.831Z,85.52
2023-04-16T15:11:46.495Z,85.81
2023-04-16T15:14:49.205Z,85.87
2023-04-16T15:17:52.102Z,85.69
2023-04-16T15:20:58.438Z,85.69
2023-04-16T15:24:03.000Z,86.45
2023-04-16T15:27:07.168Z,83.64
2023-04-16T15:30:11.385Z,83.31
2023-04-16T15:33:14.060Z,83.93
2023-04-16T15:36:17.090Z,85.56
2023-04-16T15:39:21.836Z,85.20
2023-04-16T15:42:25.026Z,84.78
2023-04-16T15:45:31.908Z,84.69
2023-04-16T15:48:34.648Z,84.38
2023-04-16T15:51:37.434Z,84.28
2023-04-16T15:54:41.916Z,85.66
2023-04-16T15:57:44.839Z,85.50
2023-04-16T16:00:49.922Z,85.36
2023-04-16T16:03:52.954Z,86.16
2023-04-16T16:06:55.720Z,86.73
2023-04-16T16:09:59.835Z,87.47
2023-04-16T16:13:05.417Z,87.66
2023-04-16T16:16:08.281Z,86.92
2023-04-16T16:19:11.405Z,85.92
2023-04-16T16:22:20.862Z,86.26
2023-04-16T16:25:25.151Z,87.62
2023-04-16T16:28:27.914Z,87.60
2023-04-16T16:31:30.632Z,87.78
2023-04-16T16:34:33.366Z,88.59
2023-04-16T16:37:36.088Z,89.18
2023-04-16T16:40:40.401Z,87.52
2023-04-16T16:43:43.147Z,87.54
2023-04-16T16:46:47.116Z,88.33
2023-04-16T16:49:49.821Z,86.05
2023-04-16T16:52:52.527Z,85.80
2023-04-16T16:55:56.729Z,87.03
2023-04-16T16:58:59.431Z,87.21
2023-04-16T17:02:02.224Z,85.53
2023-04-16T17:05:05.925Z,87.18
2023-04-16T17:08:08.601Z,87.67
2023-04-16T17:11:12.587Z,88.00
2023-04-16T17:14:15.699Z,88.47
2023-04-16T17:17:18.690Z,88.73
2023-04-16T17:20:21.916Z,88.76
2023-04-16T17:23:24.616Z,88.59
2023-04-16T17:26:28.643Z,88.77
2023-04-16T17:29:31.499Z,87.44
2023-04-16T17:32:34.236Z,87.43
2023-04-16T17:35:37.082Z,87.80
2023-04-16T17:38:40.064Z,88.91
2023-04-16T17:41:44.205Z,89.36
2023-04-16T17:44:46.867Z,89.92
2023-04-16T17:47:49.726Z,90.20
2023-04-16T17:50:52.652Z,90.52
2023-04-16T17:53:55.721Z,90.67
2023-04-16T17:57:00.038Z,90.52
2023-04-16T18:00:06.059Z,91.05
2023-04-16T18:03:09.785Z,90.77
2023-04-16T18:06:12.930Z,90.93
2023-04-16T18:09:16.967Z,91.14
2023-04-16T18:12:20.988Z,91.42
2023-04-16T18:15:23.715Z,91.52
2023-04-16T18:18:26.416Z,91.39
2023-04-16T18:21:30.335Z,91.46
2023-04-16T18:24:35.348Z,91.93
2023-04-16T18:27:39.551Z,91.76
2023-04-16T18:30:42.974Z,92.12
2023-04-16T18:33:56.279Z,92.38
2023-04-16T18:37:00.785Z,92.31
2023-04-16T18:40:05.665Z,92.30
2023-04-16T18:43:09.655Z,92.11
2023-04-16T18:46:13.281Z,92.04
2023-04-16T18:49:16.122Z,91.72
2023-04-16T18:52:18.939Z,92.13
2023-04-16T18:55:21.573Z,91.76
2023-04-16T18:58:30.148Z,91.93
2023-04-16T19:01:32.824Z,92.19
2023-04-16T19:04:36.114Z,92.57
2023-04-16T19:07:39.856Z,92.22
2023-04-16T19:10:42.596Z,92.32
2023-04-16T19:13:46.978Z,92.17
2023-04-16T19:16:49.595Z,92.81
2023-04-16T19:19:52.981Z,93.03
2023-04-16T19:22:55.694Z,93.55
2023-04-16T19:25:58.430Z,93.58
2023-04-16T19:29:02.455Z,93.42
2023-04-16T19:32:05.372Z,93.40
2023-04-16T19:35:09.024Z,93.17
2023-04-16T19:38:11.742Z,92.99
2023-04-16T19:41:14.450Z,92.83
2023-04-16T19:44:19.359Z,92.80
2023-04-16T19:47:22.095Z,92.80
2023-04-16T19:50:24.817Z,92.38
2023-04-16T19:53:28.008Z,92.62
2023-04-16T19:56:30.630Z,92.44
2023-04-16T19:59:35.001Z,92.25
2023-04-16T20:02:37.863Z,92.37
2023-04-16T20:05:41.004Z,92.09
2023-04-16T20:08:44.516Z,91.96
2023-04-16T20:11:48.025Z,92.17
2023-04-16T20:14:52.213Z,91.71
2023-04-16T20:17:56.214Z,91.81
2023-04-16T20:20:58.987Z,91.98
2023-04-16T20:24:02.716Z,91.80
2023-04-16T20:27:05.388Z,91.73
2023-04-16T20:30:10.282Z,91.71
2023-04-16T20:33:12.960Z,92.03
2023-04-16T20:36:15.664Z,92.12
2023-04-16T20:39:20.501Z,92.22
2023-04-16T20:42:23.310Z,92.48
2023-04-16T20:45:32.025Z,92.14
2023-04-16T20:48:36.039Z,92.52
2023-04-16T20:51:38.908Z,92.42
2023-04-16T20:54:41.742Z,92.34
2023-04-16T20:57:44.369Z,92.59
2023-04-16T21:00:52.021Z,92.81
2023-04-16T21:03:54.908Z,92.98
2023-04-16T21:06:58.062Z,93.19
2023-04-16T21:10:01.428Z,93.25
2023-04-16T21:13:04.134Z,93.15
2023-04-16T21:16:09.921Z,93.54
2023-04-16T21:19:12.664Z,93.90
2023-04-16T21:22:15.428Z,93.74
2023-04-16T21:25:18.375Z,93.76
2023-04-16T21:28:21.047Z,93.75
2023-04-16T21:31:25.094Z,94.23
2023-04-16T21:34:27.734Z,94.30
2023-04-16T21:37:30.444Z,94.09
2023-04-16T21:40:33.288Z,94.32
2023-04-16T21:43:39.169Z,94.19
2023-04-16T21:46:43.249Z,94.26
2023-04-16T21:49:46.051Z,94.21
2023-04-16T21:52:49.190Z,94.03
2023-04-16T21:55:51.942Z,93.96
2023-04-16T21:58:54.627Z,94.11
2023-04-16T22:01:58.682Z,94.03
2023-04-16T22:05:01.710Z,94.07
2023-04-16T22:08:16.908Z,94.21
2023-04-16T22:11:23.989Z,94.24
2023-04-16T22:14:28.092Z,94.43
2023-04-16T22:17:32.186Z,94.60
2023-04-16T22:20:39.126Z,94.91
2023-04-16T22:23:42.057Z,94.89
2023-04-16T22:26:45.521Z,95.30
2023-04-16T22:29:48.224Z,95.08
2023-04-16T22:32:52.249Z,95.38
2023-04-16T22:35:54.958Z,95.58
2023-04-16T22:38:57.703Z,95.39
2023-04-16T22:42:00.693Z,95.63
2023-04-16T22:45:04.550Z,95.40
2023-04-16T22:48:08.695Z,95.15
2023-04-16T22:51:11.413Z,95.49
2023-04-16T22:54:14.203Z,95.38
2023-04-16T22:57:17.425Z,95.52
2023-04-16T23:00:21.181Z,95.55
2023-04-16T23:03:25.273Z,95.74
2023-04-16T23:06:28.124Z,95.97
2023-04-16T23:09:31.024Z,95.81
2023-04-16T23:12:33.697Z,95.54
2023-04-16T23:15:36.425Z,95.64
2023-04-16T23:18:43.807Z,95.57
2023-04-16T23:21:46.511Z,96.07
2023-04-16T23:24:49.154Z,95.94
2023-04-16T23:27:51.932Z,95.70
2023-04-16T23:30:54.710Z,95.55
2023-04-16T23:33:58.858Z,95.92
2023-04-16T23:37:02.219Z,96.07
2023-04-16T23:40:05.677Z,96.25
2023-04-16T23:43:08.401Z,96.53
2023-04-16T23:46:11.419Z,96.68
2023-04-16T23:49:15.429Z,96.96
2023-04-16T23:52:18.087Z,97.06
2023-04-16T23:55:24.208Z,97.40
2023-04-16T23:58:26.870Z,97.44
